Time;durP1;ratioP1;P1;durP2;ratioP2;P2;SDS_P1;SDS_P2;PMS_P1;PMS_P2;Temp;Humidity;BMP_temperature;BMP_pressure;BME280_temperature;BME280_humidity;BME280_pressure;Samples;Min_cycle;Max_cycle;Signal;HPM_P1;HPM_P2
2023/03/17 00:00:36;;;;;;;1.20;1.05;;;;;;;23.52;30.43;100859.84;5017270;28;20040;-66
2023/03/17 00:03:03;;;;;;;1.15;1.02;;;;;;;23.26;30.87;100854.47;5044963;28;20155;-69
2023/03/17 00:05:32;;;;;;;1.58;1.48;;;;;;;23.10;31.18;100853.00;5003020;28;20398;-65
2023/03/17 00:08:09;;;;;;;1.02;0.90;;;;;;;22.97;31.49;100833.56;5040093;28;20041;-66
2023/03/17 00:10:35;;;;;;;0.75;0.75;;;;;;;22.99;31.17;100856.28;4998884;28;20053;-67
2023/03/17 00:13:02;;;;;;;1.45;0.90;;;;;;;23.08;31.18;100841.78;5046797;28;20029;-67
2023/03/17 00:15:28;;;;;;;0.75;0.75;;;;;;;23.05;31.10;100836.06;5003118;28;20116;-66
2023/03/17 00:17:55;;;;;;;1.00;0.90;;;;;;;23.01;31.30;100837.47;5035451;28;20808;-66
2023/03/17 00:20:31;;;;;;;1.00;0.90;;;;;;;22.94;31.45;100826.00;5006634;28;20041;-70
2023/03/17 00:23:04;;;;;;;2.17;0.95;;;;;;;22.75;31.36;100838.97;5039442;28;20041;-70
2023/03/17 00:25:33;;;;;;;0.73;0.73;;;;;;;22.27;32.45;100844.28;5039494;28;20159;-70
2023/03/17 00:27:59;;;;;;;0.90;0.90;;;;;;;22.10;32.62;100850.09;5036890;28;20051;-70
2023/03/17 00:30:27;;;;;;;0.65;0.65;;;;;;;21.89;32.99;100846.41;5039511;28;20246;-69
2023/03/17 00:32:55;;;;;;;0.90;0.90;;;;;;;21.89;32.72;100851.72;5037006;28;20035;-69
2023/03/17 00:35:24;;;;;;;0.73;0.73;;;;;;;21.75;32.75;100839.41;5041352;28;20043;-70
2023/03/17 00:37:51;;;;;;;0.68;0.63;;;;;;;21.76;32.90;100854.28;5041913;28;20156;-69
2023/03/17 00:40:23;;;;;;;1.23;0.82;;;;;;;21.68;32.89;100849.94;5033645;28;20033;-69
2023/03/17 00:42:50;;;;;;;1.00;1.00;;;;;;;21.62;32.69;100847.22;5037788;28;20475;-69
2023/03/17 00:45:15;;;;;;;0.90;0.82;;;;;;;21.59;32.81;100858.22;5040382;28;20052;-69
2023/03/17 00:47:42;;;;;;;1.13;1.00;;;;;;;21.45;32.93;100853.81;5037568;28;21801;-68
2023/03/17 00:50:23;;;;;;;0.63;0.63;;;;;;;21.44;33.13;100858.28;5040824;28;20041;-69
2023/03/17 00:52:51;;;;;;;1.83;1.10;;;;;;;21.39;33.01;100858.03;5037414;28;20029;-69
2023/03/17 00:55:18;;;;;;;1.10;0.80;;;;;;;21.28;33.25;100855.88;5036381;28;20029;-69
2023/03/17 00:57:45;;;;;;;1.23;0.98;;;;;;;21.28;33.13;100858.53;5048087;28;20131;-69
2023/03/17 01:00:27;;;;;;;0.68;0.68;;;;;;;21.19;33.18;100859.63;5050692;28;20041;-69
2023/03/17 01:02:54;;;;;;;1.42;0.90;;;;;;;21.12;33.37;100854.25;5043212;28;20810;-69
2023/03/17 01:05:21;;;;;;;1.27;1.00;;;;;;;21.02;33.27;100838.69;5039675;28;20039;-69
2023/03/17 01:07:53;;;;;;;0.95;0.77;;;;;;;21.08;33.25;100851.16;5044537;28;20036;-69
2023/03/17 01:10:22;;;;;;;0.73;0.73;;;;;;;20.97;33.53;100837.59;5041142;28;20048;-69
2023/03/17 01:12:49;;;;;;;2.08;1.35;;;;;;;20.98;33.23;100847.97;5045376;28;20036;-69
2023/03/17 01:15:16;;;;;;;2.13;0.93;;;;;;;20.90;33.39;100842.00;5047287;28;20494;-69
2023/03/17 01:17:42;;;;;;;0.95;0.93;;;;;;;20.74;33.42;100830.63;5039716;28;20028;-69
2023/03/17 01:20:15;;;;;;;1.75;1.20;;;;;;;20.76;33.46;100809.25;5039203;28;20155;-70
2023/03/17 01:22:41;;;;;;;1.00;0.90;;;;;;;20.80;33.60;100826.41;5043025;28;20033;-70
2023/03/17 01:25:10;;;;;;;0.85;0.85;;;;;;;20.68;33.58;100812.03;5047601;28;20091;-69
2023/03/17 01:27:36;;;;;;;0.75;0.73;;;;;;;20.70;33.57;100810.00;5038429;28;20044;-69
2023/03/17 01:30:05;;;;;;;1.90;0.90;;;;;;;20.60;33.77;100812.13;5031569;28;20033;-69
2023/03/17 01:32:30;;;;;;;0.75;0.75;;;;;;;20.57;33.70;100813.31;5033296;28;20063;-69
2023/03/17 01:34:56;;;;;;;1.13;1.02;;;;;;;20.46;33.92;100816.41;5038421;28;20045;-70
2023/03/17 01:37:22;;;;;;;1.38;0.93;;;;;;;20.53;33.70;100806.75;5035146;28;20045;-69
2023/03/17 01:39:47;;;;;;;0.88;0.88;;;;;;;20.43;33.83;100814.13;5037562;28;20052;-69
2023/03/17 01:42:13;;;;;;;0.80;0.80;;;;;;;20.42;33.90;100809.84;5038487;28;20048;-69
2023/03/17 01:45:18;;;;;;;1.23;1.00;;;;;;;20.41;33.81;100803.75;5034435;28;20033;-69
2023/03/17 01:47:44;;;;;;;1.10;1.00;;;;;;;20.35;34.05;100814.22;5034572;28;20120;-69
2023/03/17 01:50:10;;;;;;;1.15;1.08;;;;;;;20.30;33.95;100804.19;5039356;28;20126;-69
2023/03/17 01:52:38;;;;;;;0.88;0.88;;;;;;;20.29;33.89;100799.06;5039960;28;20041;-69
2023/03/17 01:55:06;;;;;;;1.55;0.98;;;;;;;20.25;33.95;100797.78;5038530;28;20039;-69
2023/03/17 01:57:38;;;;;;;1.75;1.20;;;;;;;20.30;33.97;100800.72;5038559;28;20047;-70
2023/03/17 02:00:08;;;;;;;1.05;0.82;;;;;;;20.10;34.10;100774.81;5050834;28;20036;-70
2023/03/17 02:02:42;;;;;;;0.90;0.90;;;;;;;20.13;34.10;100785.06;5040170;28;20041;-70
2023/03/17 02:05:11;;;;;;;1.10;1.00;;;;;;;20.12;34.24;100778.13;5037763;28;20059;-70
2023/03/17 02:07:37;;;;;;;1.25;1.00;;;;;;;20.13;34.19;100763.09;5035145;28;20034;-70
2023/03/17 02:10:04;;;;;;;1.23;1.13;;;;;;;20.06;34.16;100770.91;5032400;28;20406;-70
2023/03/17 02:12:30;;;;;;;2.03;1.20;;;;;;;20.07;34.10;100785.75;5032284;28;20146;-70
2023/03/17 02:14:57;;;;;;;1.65;0.90;;;;;;;20.04;34.19;100770.28;5068508;28;20049;-70
2023/03/17 02:17:25;;;;;;;0.73;0.70;;;;;;;20.08;34.07;100771.53;5037561;28;20116;-70
2023/03/17 02:19:51;;;;;;;0.88;0.88;;;;;;;20.10;33.97;100777.47;5051282;28;20030;-69
2023/03/17 02:22:17;;;;;;;1.05;0.95;;;;;;;20.03;34.15;100776.56;5036294;28;20048;-69
2023/03/17 02:24:50;;;;;;;1.27;1.08;;;;;;;19.99;34.16;100759.44;5036042;28;20053;-70
2023/03/17 02:27:20;;;;;;;1.15;0.77;;;;;;;19.94;34.19;100764.44;5043362;28;20040;-70
2023/03/17 02:29:46;;;;;;;;;;;;;;;20.09;33.89;100772.34;5044559;28;20039;-70
2023/03/17 02:32:13;;;;;;;1.20;1.10;;;;;;;20.00;34.08;100770.81;5038188;28;20007;-70
2023/03/17 02:34:39;;;;;;;1.13;1.13;;;;;;;20.00;34.07;100771.66;5041627;28;20140;-69
2023/03/17 02:37:06;;;;;;;1.67;1.13;;;;;;;20.00;33.89;100766.34;5039181;28;20041;-70
2023/03/17 02:39:32;;;;;;;1.35;1.05;;;;;;;19.94;34.00;100763.63;5039935;28;20060;-69
2023/03/17 02:41:58;;;;;;;0.90;0.90;;;;;;;19.91;34.12;100772.72;5033855;28;20570;-70
2023/03/17 02:44:24;;;;;;;1.08;0.93;;;;;;;19.82;34.25;100763.25;5054879;28;20102;-70
2023/03/17 02:46:52;;;;;;;0.85;0.82;;;;;;;19.91;34.22;100783.28;5033593;28;20047;-70
2023/03/17 02:49:18;;;;;;;1.30;1.20;;;;;;;19.88;34.15;100776.53;5034915;28;20053;-70
2023/03/17 02:51:44;;;;;;;1.08;1.02;;;;;;;19.97;34.03;100764.09;5035786;28;20132;-70
2023/03/17 02:54:10;;;;;;;1.02;1.00;;;;;;;19.84;34.15;100759.41;5036917;28;20057;-70
2023/03/17 02:56:35;;;;;;;1.27;1.10;;;;;;;19.89;34.06;100764.97;5040887;28;20045;-70
2023/03/17 02:59:02;;;;;;;1.77;1.10;;;;;;;19.85;34.16;100757.59;5038355;28;20049;-71
2023/03/17 03:01:29;;;;;;;0.80;0.80;;;;;;;19.85;34.08;100762.88;5044066;28;20041;-70
2023/03/17 03:03:55;;;;;;;1.58;1.30;;;;;;;19.74;34.33;100763.31;5055364;28;20169;-70
2023/03/17 03:06:22;;;;;;;1.73;1.17;;;;;;;19.80;34.16;100766.06;5039726;28;20087;-70
2023/03/17 03:08:49;;;;;;;1.98;1.25;;;;;;;19.81;34.03;100772.19;5045635;28;20466;-70
2023/03/17 03:11:14;;;;;;;1.20;1.10;;;;;;;19.77;34.18;100776.19;5044998;28;20033;-70
2023/03/17 03:13:40;;;;;;;0.70;0.70;;;;;;;19.74;34.15;100774.69;5043275;28;20452;-70
2023/03/17 03:16:07;;;;;;;1.33;1.15;;;;;;;19.78;34.11;100762.78;5037631;28;20072;-70
2023/03/17 03:18:32;;;;;;;2.60;1.60;;;;;;;19.75;34.17;100765.81;5039074;28;20045;-70
2023/03/17 03:20:58;;;;;;;0.90;0.90;;;;;;;19.70;34.32;100754.13;5042171;28;20103;-70
2023/03/17 03:23:23;;;;;;;1.20;1.10;;;;;;;19.76;34.11;100751.59;5036127;28;20176;-70
2023/03/17 03:25:49;;;;;;;1.00;0.80;;;;;;;19.76;34.22;100753.41;5041628;28;20537;-70
2023/03/17 03:28:14;;;;;;;2.15;1.52;;;;;;;19.74;34.12;100750.91;5043262;28;20048;-70
2023/03/17 03:30:41;;;;;;;0.80;0.80;;;;;;;19.72;34.28;100752.09;5034949;28;20029;-70
2023/03/17 03:33:06;;;;;;;1.17;0.95;;;;;;;19.68;34.26;100754.28;5039841;28;20041;-70
2023/03/17 03:35:33;;;;;;;0.75;0.75;;;;;;;19.72;34.26;100750.28;5037984;28;20103;-71
2023/03/17 03:37:59;;;;;;;1.05;1.00;;;;;;;19.98;33.80;100751.69;5028997;28;20048;-70
2023/03/17 03:40:25;;;;;;;1.15;1.00;;;;;;;20.29;33.43;100759.41;5038557;28;20040;-70
2023/03/17 03:42:51;;;;;;;0.98;0.90;;;;;;;20.47;33.02;100767.81;5045198;28;20064;-70
2023/03/17 03:45:17;;;;;;;1.15;1.05;;;;;;;20.44;32.96;100754.94;5042500;28;20072;-70
2023/03/17 03:47:43;;;;;;;0.73;0.73;;;;;;;20.51;32.90;100761.97;5034987;28;20048;-70
2023/03/17 03:50:09;;;;;;;1.10;1.00;;;;;;;20.46;32.99;100763.50;5042733;28;20029;-70
2023/03/17 03:52:35;;;;;;;3.08;1.02;;;;;;;20.44;33.08;100765.53;5044528;28;20118;-70
2023/03/17 03:55:00;;;;;;;0.70;0.70;;;;;;;20.40;33.20;100759.75;5040251;28;20092;-70
2023/03/17 03:57:26;;;;;;;1.10;1.00;;;;;;;20.39;33.11;100762.59;5037112;28;20037;-70
2023/03/17 03:59:51;;;;;;;1.52;1.33;;;;;;;20.41;33.22;100760.59;5041354;28;20037;-70
2023/03/17 04:02:17;;;;;;;0.98;0.73;;;;;;;20.37;33.33;100751.38;5044416;28;20042;-70
2023/03/17 04:04:43;;;;;;;0.98;0.95;;;;;;;20.32;33.34;100749.28;5043899;28;20038;-70
2023/03/17 04:07:09;;;;;;;1.20;1.10;;;;;;;20.32;33.23;100748.47;5037001;28;20033;-69
2023/03/17 04:09:35;;;;;;;1.48;0.85;;;;;;;20.31;33.39;100744.19;5037556;28;20052;-70
2023/03/17 04:12:01;;;;;;;1.60;1.20;;;;;;;20.32;33.37;100743.19;5040651;28;20071;-70
2023/03/17 04:14:27;;;;;;;1.10;0.80;;;;;;;20.25;33.35;100748.38;5046281;28;20037;-69
2023/03/17 04:16:53;;;;;;;0.95;0.95;;;;;;;20.15;33.44;100737.28;5037958;28;20415;-69
2023/03/17 04:19:20;;;;;;;1.15;1.05;;;;;;;20.12;33.79;100740.28;5041020;28;20029;-70
2023/03/17 04:21:46;;;;;;;0.98;0.95;;;;;;;20.09;33.68;100744.09;5043067;28;20144;-70
2023/03/17 04:24:12;;;;;;;1.00;0.80;;;;;;;20.01;33.81;100738.91;5042917;28;20045;-70
2023/03/17 04:26:38;;;;;;;1.20;1.10;;;;;;;19.97;33.92;100729.72;5040252;28;20045;-70
2023/03/17 04:29:06;;;;;;;2.03;1.05;;;;;;;19.91;33.96;100741.81;5042595;28;20052;-70
2023/03/17 04:31:32;;;;;;;1.60;1.45;;;;;;;19.99;33.86;100733.00;5039868;28;20105;-70
2023/03/17 04:33:58;;;;;;;1.92;1.13;;;;;;;19.90;34.09;100734.91;5038997;28;20041;-70
2023/03/17 04:36:23;;;;;;;0.85;0.85;;;;;;;19.84;34.03;100745.38;5036372;28;20041;-70
2023/03/17 04:38:49;;;;;;;0.70;0.70;;;;;;;19.86;34.04;100730.16;5037233;28;20397;-70
2023/03/17 04:41:14;;;;;;;1.23;0.98;;;;;;;19.79;34.04;100734.56;5038561;28;20549;-70
2023/03/17 04:43:40;;;;;;;1.02;0.93;;;;;;;19.69;34.09;100734.81;5039550;28;20049;-70
2023/03/17 04:46:06;;;;;;;1.13;1.00;;;;;;;19.76;34.13;100740.19;5037319;28;20052;-70
2023/03/17 04:48:32;;;;;;;1.02;0.90;;;;;;;19.73;34.16;100754.56;5032299;28;20046;-69
2023/03/17 04:50:58;;;;;;;1.77;1.10;;;;;;;19.71;34.26;100761.84;5037212;28;20099;-70
2023/03/17 04:53:23;;;;;;;0.70;0.70;;;;;;;19.68;34.15;100764.03;5042423;28;20033;-70
2023/03/17 04:55:49;;;;;;;1.23;0.90;;;;;;;19.80;34.02;100755.50;5041814;28;20114;-70
2023/03/17 04:58:14;;;;;;;0.90;0.90;;;;;;;19.67;34.18;100757.94;5042034;28;20045;-70
2023/03/17 05:00:40;;;;;;;1.20;1.00;;;;;;;19.68;34.20;100759.59;5032974;28;20048;-70
2023/03/17 05:03:06;;;;;;;1.13;1.02;;;;;;;19.62;34.22;100757.66;5039311;28;20044;-70
2023/03/17 05:05:32;;;;;;;0.68;0.68;;;;;;;19.65;34.19;100752.03;5035224;28;20136;-70
2023/03/17 05:07:58;;;;;;;1.48;1.08;;;;;;;19.62;34.26;100747.09;5040941;28;20226;-70
2023/03/17 05:10:24;;;;;;;2.05;1.02;;;;;;;19.62;33.91;100744.47;5036486;28;20110;-69
2023/03/17 05:12:49;;;;;;;1.25;1.05;;;;;;;19.61;34.27;100748.09;5031198;28;20060;-70
2023/03/17 05:15:15;;;;;;;1.20;1.00;;;;;;;19.36;34.42;100718.41;5033824;28;20053;-69
2023/03/17 05:17:40;;;;;;;0.80;0.80;;;;;;;19.54;34.30;100745.34;5040303;28;20491;-70
2023/03/17 05:20:08;;;;;;;0.90;0.77;;;;;;;19.58;34.35;100748.47;5045628;28;20037;-70
2023/03/17 05:22:34;;;;;;;1.90;0.90;;;;;;;19.58;34.20;100743.19;5035341;28;20487;-70
2023/03/17 05:24:59;;;;;;;1.10;1.02;;;;;;;19.52;34.36;100744.66;5036251;28;20130;-68
2023/03/17 05:27:25;;;;;;;1.20;1.08;;;;;;;19.58;34.21;100746.66;5042712;28;20037;-70
2023/03/17 05:29:51;;;;;;;1.20;1.10;;;;;;;19.54;34.24;100744.53;5039193;28;20040;-70
2023/03/17 05:32:17;;;;;;;1.20;1.10;;;;;;;19.90;33.66;100750.75;5040199;28;20051;-69
2023/03/17 05:34:43;;;;;;;1.40;1.30;;;;;;;20.05;33.40;100760.50;5042178;28;20073;-70
2023/03/17 05:37:10;;;;;;;1.80;1.02;;;;;;;20.10;33.27;100758.13;5036437;28;21058;-70
2023/03/17 05:39:35;;;;;;;1.17;1.08;;;;;;;20.13;33.31;100755.97;5038915;28;20036;-70
2023/03/17 05:42:01;;;;;;;1.25;1.15;;;;;;;20.10;33.26;100764.25;5037578;28;20093;-70
2023/03/17 05:44:27;;;;;;;1.65;1.50;;;;;;;20.02;33.40;100760.88;5036838;28;20683;-70
2023/03/17 05:46:54;;;;;;;1.00;0.90;;;;;;;20.06;33.45;100759.50;5039884;28;20080;-70
2023/03/17 05:49:19;;;;;;;0.77;0.77;;;;;;;20.04;33.38;100748.31;5037787;28;20045;-70
2023/03/17 05:51:45;;;;;;;1.27;0.93;;;;;;;20.07;33.42;100747.94;5035686;28;20124;-70
2023/03/17 05:54:11;;;;;;;1.75;1.17;;;;;;;19.97;33.63;100745.59;5038984;28;20519;-70
2023/03/17 05:56:36;;;;;;;1.10;1.10;;;;;;;19.92;33.65;100748.75;5037422;28;20049;-70
2023/03/17 05:59:01;;;;;;;1.45;1.35;;;;;;;19.93;33.66;100749.59;5036057;28;20040;-70
2023/03/17 06:01:28;;;;;;;1.45;1.10;;;;;;;19.90;33.76;100756.03;5040643;28;20048;-69
2023/03/17 06:03:53;;;;;;;1.52;1.30;;;;;;;19.87;33.75;100756.41;5038737;28;20726;-71
2023/03/17 06:06:19;;;;;;;1.15;1.02;;;;;;;19.78;33.91;100759.34;5039403;28;20049;-69
2023/03/17 06:08:44;;;;;;;1.00;1.00;;;;;;;19.68;34.24;100753.47;5038710;28;20049;-69
2023/03/17 06:11:10;;;;;;;1.15;1.02;;;;;;;19.71;34.13;100764.50;5034472;28;20049;-70
2023/03/17 06:13:35;;;;;;;0.80;0.80;;;;;;;19.68;34.09;100770.16;5037070;28;20037;-68
2023/03/17 06:16:02;;;;;;;1.25;1.15;;;;;;;19.65;34.22;100773.16;5031650;28;20036;-70
2023/03/17 06:18:27;;;;;;;1.23;0.93;;;;;;;19.66;34.19;100776.63;5034518;28;20025;-70
2023/03/17 06:20:53;;;;;;;1.50;1.35;;;;;;;19.79;33.94;100779.47;5037548;28;20049;-70
2023/03/17 06:23:19;;;;;;;0.80;0.80;;;;;;;19.97;33.54;100779.94;5036658;28;20107;-70
2023/03/17 06:25:46;;;;;;;0.93;0.93;;;;;;;20.06;33.43;100772.72;5042771;28;20558;-70
2023/03/17 06:28:12;;;;;;;1.80;0.80;;;;;;;20.03;33.54;100766.00;5036305;28;20034;-69
2023/03/17 06:30:38;;;;;;;1.35;1.02;;;;;;;20.02;33.52;100751.13;5037803;28;20518;-70
2023/03/17 06:33:04;;;;;;;1.02;0.90;;;;;;;20.05;33.40;100752.59;5040209;28;20067;-70
2023/03/17 06:35:31;;;;;;;0.90;0.90;;;;;;;20.01;33.49;100761.88;5041529;28;20137;-70
2023/03/17 06:37:56;;;;;;;1.75;1.30;;;;;;;19.91;33.60;100749.75;5038633;28;20040;-70
2023/03/17 06:40:22;;;;;;;1.45;1.15;;;;;;;19.86;33.78;100762.69;5038874;28;20037;-70
2023/03/17 06:42:48;;;;;;;1.20;1.10;;;;;;;19.85;33.86;100747.84;5037507;28;20055;-70
2023/03/17 06:45:14;;;;;;;1.15;1.08;;;;;;;19.86;33.85;100738.91;5033446;28;20037;-70
2023/03/17 06:47:40;;;;;;;1.52;1.42;;;;;;;19.85;33.84;100733.81;5038821;28;20040;-70
2023/03/17 06:50:08;;;;;;;2.08;1.00;;;;;;;19.76;33.91;100732.28;5037971;28;20464;-70
2023/03/17 06:52:35;;;;;;;0.93;0.85;;;;;;;19.74;34.00;100755.38;5023813;28;20088;-70
2023/03/17 06:55:00;;;;;;;1.58;1.40;;;;;;;19.63;34.00;100724.16;5030294;28;20049;-70
2023/03/17 06:57:26;;;;;;;1.50;1.27;;;;;;;19.63;34.17;100742.63;5038768;28;20049;-70
2023/03/17 06:59:52;;;;;;;1.17;1.08;;;;;;;19.78;33.89;100725.81;5033647;28;20041;-70
2023/03/17 07:02:17;;;;;;;1.00;0.90;;;;;;;19.94;33.64;100724.81;5036912;28;20032;-70
2023/03/17 07:04:43;;;;;;;1.13;1.02;;;;;;;20.05;33.48;100705.00;5032485;28;20045;-70
2023/03/17 07:07:08;;;;;;;1.45;0.90;;;;;;;20.08;33.37;100681.66;5030307;28;20755;-70
2023/03/17 07:09:34;;;;;;;0.80;0.80;;;;;;;20.07;33.45;100714.38;5035816;28;21024;-70
2023/03/17 07:12:03;;;;;;;1.25;1.05;;;;;;;20.07;33.47;100742.66;5043683;28;20060;-70
2023/03/17 07:14:34;;;;;;;1.15;0.77;;;;;;;20.06;33.52;100762.16;5032099;28;20099;-70
2023/03/17 07:17:00;;;;;;;1.08;1.05;;;;;;;20.13;33.34;100777.13;5035500;28;20128;-68
2023/03/17 07:19:26;;;;;;;0.85;0.80;;;;;;;20.17;33.38;100773.09;5033590;28;20044;-70
2023/03/17 07:21:56;;;;;;;1.48;1.05;;;;;;;20.20;33.37;100761.34;5032748;28;20076;-71
2023/03/17 07:24:23;;;;;;;0.88;0.88;;;;;;;20.19;33.44;100757.06;5033465;28;20119;-70
2023/03/17 07:26:48;;;;;;;0.77;0.73;;;;;;;20.13;33.49;100752.50;5032451;28;20132;-70
2023/03/17 07:29:15;;;;;;;0.90;0.90;;;;;;;20.17;33.38;100751.94;5035627;28;20041;-69
2023/03/17 07:31:42;;;;;;;2.08;1.20;;;;;;;20.19;33.36;100755.22;5030315;28;20033;-71
2023/03/17 07:34:09;;;;;;;1.15;1.00;;;;;;;20.22;33.37;100752.22;5026776;28;20041;-70
2023/03/17 07:36:35;;;;;;;1.10;0.85;;;;;;;20.13;33.40;100747.22;5037378;28;20064;-70
2023/03/17 07:39:02;;;;;;;1.88;1.05;;;;;;;20.26;33.36;100762.41;5034770;28;20037;-70
2023/03/17 07:41:28;;;;;;;1.10;1.00;;;;;;;20.30;33.41;100753.13;5030651;28;20403;-72
2023/03/17 07:43:55;;;;;;;1.30;0.88;;;;;;;20.43;33.24;100754.13;5033221;28;20036;-71
2023/03/17 07:46:20;;;;;;;0.98;0.82;;;;;;;20.60;32.97;100764.50;5032891;28;20061;-70
2023/03/17 07:48:46;;;;;;;1.10;1.00;;;;;;;20.73;32.83;100754.88;5036815;28;20045;-70
2023/03/17 07:51:14;;;;;;;0.88;0.85;;;;;;;20.97;32.48;100731.69;5036830;28;20044;-70
2023/03/17 07:53:40;;;;;;;1.55;1.20;;;;;;;21.34;32.02;100720.84;5026635;28;20057;-69
2023/03/17 07:56:06;;;;;;;2.78;1.20;;;;;;;21.78;31.51;100732.16;5031598;28;20071;-70
2023/03/17 07:58:32;;;;;;;1.48;1.10;;;;;;;22.10;30.98;100722.78;5029160;28;20076;-70
2023/03/17 08:00:57;;;;;;;0.93;0.90;;;;;;;22.08;31.27;100720.31;5037979;28;20790;-69
2023/03/17 08:03:23;;;;;;;1.33;1.13;;;;;;;21.94;31.26;100724.72;5035206;28;20548;-70
2023/03/17 08:05:54;;;;;;;0.95;0.90;;;;;;;21.78;31.53;100705.66;5033582;28;20041;-70
2023/03/17 08:08:21;;;;;;;1.65;0.90;;;;;;;21.71;32.08;100732.09;5038085;28;20092;-70
2023/03/17 08:10:47;;;;;;;1.17;1.08;;;;;;;21.54;31.91;100710.41;5036964;28;20429;-71
2023/03/17 08:13:13;;;;;;;1.88;1.08;;;;;;;21.49;32.16;100702.22;5036405;28;20080;-70
2023/03/17 08:15:39;;;;;;;0.75;0.73;;;;;;;21.44;32.22;100703.81;5038977;28;20949;-70
2023/03/17 08:18:05;;;;;;;0.90;0.90;;;;;;;21.36;32.51;100702.97;5036663;28;20041;-70
2023/03/17 08:20:32;;;;;;;1.30;1.20;;;;;;;21.29;32.48;100688.84;5035675;28;20041;-70
2023/03/17 08:22:57;;;;;;;1.17;0.93;;;;;;;21.22;32.83;100692.41;5038371;28;20061;-70
2023/03/17 08:25:23;;;;;;;0.98;0.90;;;;;;;21.12;32.70;100675.03;5038656;28;20025;-70
2023/03/17 08:27:49;;;;;;;1.20;1.08;;;;;;;21.07;32.83;100692.50;5038115;28;20032;-70
2023/03/17 08:30:15;;;;;;;1.30;1.10;;;;;;;21.05;33.10;100687.41;5038879;28;20398;-70
2023/03/17 08:32:41;;;;;;;1.23;1.10;;;;;;;21.01;33.34;100694.09;5041978;28;20061;-70
2023/03/17 08:35:11;;;;;;;1.27;1.00;;;;;;;20.96;33.31;100707.06;5038767;28;20059;-71
2023/03/17 08:37:37;;;;;;;1.00;0.90;;;;;;;20.97;33.08;100710.53;5046397;28;20104;-77
2023/03/17 08:40:04;;;;;;;2.08;1.15;;;;;;;20.74;34.38;100713.38;5033793;28;20037;-77
2023/03/17 08:42:30;;;;;;;1.80;1.40;;;;;;;20.63;34.71;100716.50;5039188;28;20060;-84
2023/03/17 08:44:56;;;;;;;2.08;1.17;;;;;;;20.54;34.97;100723.75;5040856;28;20063;-82
2023/03/17 08:47:22;;;;;;;1.65;1.20;;;;;;;20.48;35.11;100724.50;5036375;28;20041;-72
2023/03/17 08:49:49;;;;;;;1.38;1.27;;;;;;;20.83;34.47;100717.53;4980714;28;20033;-65
2023/03/17 08:52:15;;;;;;;2.03;1.10;;;;;;;20.80;34.95;100705.47;5034791;28;20055;-70
2023/03/17 08:54:42;;;;;;;4.07;1.30;;;;;;;21.23;34.14;100720.53;5026330;28;20049;-71
2023/03/17 08:57:07;;;;;;;1.67;0.93;;;;;;;21.63;33.53;100725.16;5028807;28;20060;-66
2023/03/17 08:59:33;;;;;;;1.05;0.95;;;;;;;21.93;33.23;100724.91;5032074;28;20503;-66
2023/03/17 09:01:59;;;;;;;1.42;1.20;;;;;;;22.08;33.36;100712.34;5043989;28;20064;-65
2023/03/17 09:04:25;;;;;;;1.88;1.13;;;;;;;22.07;33.08;100709.91;4988282;28;20069;-64
2023/03/17 09:06:53;;;;;;;1.77;1.10;;;;;;;22.11;33.48;100713.81;5023871;28;20063;-66
2023/03/17 09:09:19;;;;;;;1.10;0.90;;;;;;;22.18;33.13;100719.97;5036447;28;20073;-64
2023/03/17 09:11:44;;;;;;;1.10;1.02;;;;;;;22.29;32.68;100714.09;4992880;28;20251;-67
2023/03/17 09:14:10;;;;;;;1.15;0.90;;;;;;;22.34;33.08;100729.41;5034108;28;20161;-72
2023/03/17 09:16:35;;;;;;;1.70;1.15;;;;;;;22.44;33.11;100727.19;4996679;28;20059;-65
2023/03/17 09:19:02;;;;;;;1.73;1.20;;;;;;;22.36;32.94;100727.38;5036809;28;20116;-64
2023/03/17 09:21:28;;;;;;;2.10;0.95;;;;;;;22.34;33.12;100714.31;4983976;28;20040;-71
2023/03/17 09:23:53;;;;;;;1.13;1.10;;;;;;;22.43;33.21;100731.69;5037435;28;20045;-71
2023/03/17 09:26:19;;;;;;;1.08;1.02;;;;;;;22.35;33.07;100725.75;5035943;28;20091;-73
2023/03/17 09:28:44;;;;;;;1.25;1.00;;;;;;;22.20;33.53;100716.09;4991045;28;20407;-63
2023/03/17 09:31:11;;;;;;;1.88;1.15;;;;;;;22.14;33.64;100722.19;5034912;28;20061;-64
2023/03/17 09:33:38;;;;;;;1.38;1.20;;;;;;;22.12;33.14;100734.03;4999932;28;20055;-64
2023/03/17 09:36:04;;;;;;;1.58;1.13;;;;;;;22.06;33.29;100734.78;5031622;28;20043;-64
2023/03/17 09:38:30;;;;;;;1.48;1.05;;;;;;;22.01;33.42;100728.22;4978461;28;20518;-64
2023/03/17 09:41:29;;;;;;;1.58;1.10;;;;;;;22.12;33.12;100736.69;5035922;28;20544;-65
2023/03/17 09:44:33;;;;;;;1.10;1.00;;;;;;;22.29;33.10;100728.19;4997960;28;20044;-67
2023/03/17 09:47:20;;;;;;;1.15;1.05;;;;;;;22.36;33.15;100724.72;5034847;28;20056;-68
2023/03/17 09:49:54;;;;;;;2.65;1.23;;;;;;;22.33;33.04;100725.94;4991698;28;20095;-66
2023/03/17 09:52:33;;;;;;;1.10;1.00;;;;;;;22.31;33.35;100727.97;5032728;28;20607;-66
2023/03/17 09:55:00;;;;;;;0.98;0.90;;;;;;;22.28;33.43;100717.78;4976947;28;20422;-66
2023/03/17 09:57:34;;;;;;;1.50;1.13;;;;;;;22.17;33.16;100697.94;5032380;28;20025;-65
2023/03/17 10:00:05;;;;;;;1.02;0.90;;;;;;;22.30;33.46;100727.16;5000180;28;20052;-65
2023/03/17 10:02:36;;;;;;;1.45;1.23;;;;;;;22.16;33.57;100727.31;5044585;28;20036;-64
2023/03/17 10:05:26;;;;;;;1.27;1.13;;;;;;;22.14;33.34;100726.69;4994886;28;20238;-65
2023/03/17 10:08:11;;;;;;;1.00;0.88;;;;;;;22.06;33.55;100732.94;5033717;28;20044;-64
2023/03/17 10:10:57;;;;;;;2.17;1.13;;;;;;;22.05;33.62;100723.38;4988466;28;20056;-67
2023/03/17 10:13:42;;;;;;;1.25;1.15;;;;;;;22.10;33.48;100715.66;5043172;28;20029;-66
2023/03/17 10:16:10;;;;;;;1.02;1.00;;;;;;;21.98;34.01;100711.88;4990643;28;20036;-67
2023/03/17 10:18:45;;;;;;;1.98;1.15;;;;;;;22.04;33.69;100711.09;5046744;28;20013;-68
2023/03/17 10:21:17;;;;;;;1.38;1.25;;;;;;;22.03;33.73;100712.94;4996604;28;20040;-68
2023/03/17 10:23:44;;;;;;;3.55;1.08;;;;;;;21.94;34.15;100708.81;5037656;28;20060;-69
2023/03/17 10:26:32;;;;;;;1.25;1.15;;;;;;;21.99;33.59;100709.03;5000609;28;25943;-67
2023/03/17 10:29:02;;;;;;;1.30;1.08;;;;;;;21.99;33.54;100703.75;5024501;28;20037;-68
2023/03/17 10:31:28;;;;;;;1.13;1.00;;;;;;;21.97;33.59;100692.50;5037582;28;20458;-67
2023/03/17 10:33:55;;;;;;;0.93;0.80;;;;;;;21.95;33.60;100686.59;5001069;28;20037;-70
2023/03/17 10:36:36;;;;;;;1.10;1.00;;;;;;;21.96;33.42;100693.53;5039799;28;20099;-69
2023/03/17 10:39:04;;;;;;;1.67;0.80;;;;;;;21.94;33.60;100692.91;4995939;28;20026;-69
2023/03/17 10:41:33;;;;;;;1.08;1.00;;;;;;;21.90;33.79;100691.69;5033050;28;20040;-68
2023/03/17 10:43:59;;;;;;;1.80;1.40;;;;;;;21.92;33.36;100689.66;4992356;28;20849;-69
2023/03/17 10:46:28;;;;;;;2.90;1.23;;;;;;;21.87;33.77;100681.44;5023478;28;20040;-68
2023/03/17 10:49:01;;;;;;;2.23;1.20;;;;;;;21.88;33.75;100676.94;5034434;28;21078;-68
2023/03/17 10:51:32;;;;;;;1.33;1.10;;;;;;;21.90;33.46;100670.47;4997219;28;20110;-68
2023/03/17 10:54:08;;;;;;;2.17;1.02;;;;;;;21.88;33.38;100675.13;5037499;28;20033;-68
2023/03/17 10:56:40;;;;;;;1.67;1.10;;;;;;;21.83;33.65;100671.44;4999884;28;20037;-68
2023/03/17 10:59:15;;;;;;;1.60;1.13;;;;;;;21.82;33.43;100686.53;5034921;28;20036;-68
2023/03/17 11:01:52;;;;;;;1.80;1.45;;;;;;;21.83;33.43;100689.97;4979305;28;20072;-67
2023/03/17 11:04:29;;;;;;;1.75;1.13;;;;;;;21.83;33.20;100685.50;5043359;28;20415;-67
2023/03/17 11:06:57;;;;;;;1.02;0.90;;;;;;;21.80;33.60;100685.09;5002532;28;20514;-68
2023/03/17 11:09:28;;;;;;;1.38;1.25;;;;;;;21.81;33.71;100700.78;5040056;28;20347;-68
2023/03/17 11:12:05;;;;;;;1.00;1.00;;;;;;;21.77;33.38;100702.19;5001309;28;20055;-68
2023/03/17 11:14:31;;;;;;;1.45;1.17;;;;;;;21.78;33.23;100709.13;5044127;28;20138;-68
2023/03/17 11:17:01;;;;;;;1.67;0.93;;;;;;;21.79;33.29;100707.31;4988482;28;20139;-67
2023/03/17 11:20:03;;;;;;;1.50;1.20;;;;;;;21.74;33.33;100720.34;5043925;28;20116;-68
2023/03/17 11:22:33;;;;;;;2.78;1.40;;;;;;;21.76;33.35;100726.25;5002397;28;20044;-68
2023/03/17 11:25:10;;;;;;;0.80;0.80;;;;;;;21.77;33.21;100728.69;5042367;28;20033;-68
2023/03/17 11:28:17;;;;;;;0.93;0.88;;;;;;;21.71;33.62;100732.09;5007191;28;20101;-67